Wentzville, Missouri
Current Conditions -  °F | °C
As of 2:54 AM on Monday 22 Dec 2014 (Local Time) from KSUS Reporting Station
Overcast Overcast  
Wind Chill: 38°   Ceiling: 4400
Heat Index: 42°   Visibility: 10mi
Dew Point: 31°   Wind: 7mph
Humidity: 65%   Direction: 110°ESE
Pressure: 29.85"   Gusts: NA
Location:  38.81°N, 90.85°W
Report Text: KSUS 220854Z AUTO 11006KT 10SM OVC044 06/M01 A2985 RMK AO2 SLP112 T00561006 58021
Loading
Personal Weather Stations






























Interactive Weather Map New forecast layout! Learn more

10-Day Weather Forecast

Advertisements
Track Severe Weather on mobile